createdAt,value
2019-04-07T00:01:53.898Z,10.24
2019-04-07T00:04:22.600Z,10.22
2019-04-07T00:06:51.334Z,10.19
2019-04-07T00:09:20.567Z,10.18
2019-04-07T00:11:49.714Z,10.15
2019-04-07T00:14:18.421Z,10.14
2019-04-07T00:16:47.130Z,10.10
2019-04-07T00:19:15.821Z,10.09
2019-04-07T00:21:44.534Z,10.06
2019-04-07T00:24:13.622Z,10.11
2019-04-07T00:26:42.883Z,10.03
2019-04-07T00:29:11.688Z,9.99
2019-04-07T00:31:40.852Z,10.01
2019-04-07T00:34:10.794Z,9.98
2019-04-07T00:36:39.838Z,10.00
2019-04-07T00:39:09.502Z,9.97
2019-04-07T00:41:38.728Z,9.98
2019-04-07T00:44:07.731Z,9.95
2019-04-07T00:46:36.544Z,9.87
2019-04-07T00:49:05.992Z,9.91
2019-04-07T00:51:35.463Z,9.86
2019-04-07T00:54:05.094Z,9.88
2019-04-07T00:56:33.799Z,9.92
2019-04-07T00:59:02.793Z,9.92
2019-04-07T01:01:31.784Z,9.92
2019-04-07T01:04:01.127Z,9.95
2019-04-07T01:06:29.948Z,9.91
2019-04-07T01:08:59.152Z,9.95
2019-04-07T01:11:28.902Z,9.89
2019-04-07T01:13:58.173Z,9.82
2019-04-07T01:16:27.403Z,9.83
2019-04-07T01:18:56.959Z,9.84
2019-04-07T01:21:25.659Z,9.86
2019-04-07T01:23:54.483Z,9.87
2019-04-07T01:26:23.879Z,9.92
2019-04-07T01:28:54.484Z,9.82
2019-04-07T01:31:23.036Z,9.76
2019-04-07T01:33:52.159Z,9.69
2019-04-07T01:36:21.477Z,9.63
2019-04-07T01:38:51.112Z,9.59
2019-04-07T01:41:29.939Z,9.50
2019-04-07T01:44:00.219Z,9.45
2019-04-07T01:46:48.086Z,9.40
2019-04-07T01:49:30.310Z,9.37
2019-04-07T01:52:00.836Z,9.35
2019-04-07T01:54:31.712Z,9.37
2019-04-07T01:57:05.717Z,9.38
2019-04-07T01:59:39.270Z,9.40
2019-04-07T02:02:12.568Z,9.37
2019-04-07T02:04:45.573Z,9.35
2019-04-07T02:07:28.294Z,9.33
2019-04-07T02:10:02.529Z,9.33
2019-04-07T02:12:49.796Z,9.43
2019-04-07T02:15:39.403Z,9.42
2019-04-07T02:18:16.367Z,9.51
2019-04-07T02:21:07.250Z,9.48
2019-04-07T02:23:49.489Z,9.46
2019-04-07T02:26:22.520Z,9.52
2019-04-07T02:29:05.004Z,9.53
2019-04-07T02:31:47.496Z,9.47
2019-04-07T02:34:20.905Z,9.47
2019-04-07T02:37:00.440Z,9.47
2019-04-07T02:39:42.185Z,9.50
2019-04-07T02:42:19.017Z,9.46
2019-04-07T02:45:04.331Z,9.47
2019-04-07T02:47:35.302Z,9.44
2019-04-07T02:50:19.422Z,9.47
2019-04-07T02:52:55.663Z,9.43
2019-04-07T02:55:42.479Z,9.39
2019-04-07T02:58:25.459Z,9.40
2019-04-07T03:01:02.055Z,9.43
2019-04-07T03:03:39.460Z,9.36
2019-04-07T03:06:20.790Z,9.41
2019-04-07T03:08:45.326Z,9.45
2019-04-07T03:11:22.423Z,9.48
2019-04-07T03:13:54.087Z,9.50
2019-04-07T03:16:24.664Z,9.50
2019-04-07T03:19:07.090Z,9.53
2019-04-07T03:21:38.828Z,9.52
2019-04-07T03:24:14.882Z,9.60
2019-04-07T03:27:00.835Z,9.60
2019-04-07T03:29:31.249Z,9.53
2019-04-07T03:32:06.207Z,9.48
2019-04-07T03:34:46.628Z,9.48
2019-04-07T03:37:29.959Z,9.44
2019-04-07T03:39:58.881Z,9.50
2019-04-07T03:42:45.816Z,9.43
2019-04-07T03:45:20.245Z,9.35
2019-04-07T03:47:50.683Z,9.16
2019-04-07T03:50:33.369Z,9.39
2019-04-07T03:53:20.166Z,9.40
2019-04-07T03:56:02.598Z,9.50
2019-04-07T03:58:36.354Z,9.54
2019-04-07T04:04:05.980Z,9.60
2019-04-07T04:06:51.521Z,9.65
2019-04-07T04:09:37.766Z,9.60
2019-04-07T04:12:24.531Z,9.52
2019-04-07T04:15:10.706Z,9.45
2019-04-07T04:17:39.399Z,9.44
2019-04-07T04:20:08.485Z,9.44
2019-04-07T04:22:37.871Z,9.36
2019-04-07T04:25:08.470Z,9.32
2019-04-07T04:27:38.796Z,9.32
2019-04-07T04:30:10.773Z,9.35
2019-04-07T04:32:40.149Z,9.31
2019-04-07T04:35:09.075Z,9.25
2019-04-07T04:37:44.215Z,9.20
2019-04-07T04:40:09.321Z,9.30
2019-04-07T04:42:38.433Z,9.26
2019-04-07T04:45:08.633Z,9.19
2019-04-07T04:47:37.854Z,9.28
2019-04-07T04:50:08.598Z,9.30
2019-04-07T04:52:38.376Z,9.46
2019-04-07T04:55:07.364Z,9.50
2019-04-07T04:57:36.300Z,9.66
2019-04-07T05:00:07.682Z,9.67
2019-04-07T05:02:36.402Z,10.01
2019-04-07T05:05:09.163Z,10.20
2019-04-07T05:07:49.928Z,10.33
2019-04-07T05:10:08.486Z,10.45
2019-04-07T05:12:37.895Z,10.63
2019-04-07T05:15:09.706Z,10.75
2019-04-07T05:17:39.037Z,10.91
2019-04-07T05:20:08.078Z,11.01
2019-04-07T05:22:36.921Z,11.15
2019-04-07T05:25:07.139Z,11.16
2019-04-07T05:27:35.860Z,11.24
2019-04-07T05:30:07.789Z,11.23
2019-04-07T05:32:36.916Z,11.16
2019-04-07T05:35:07.920Z,11.17
2019-04-07T05:37:37.422Z,11.26
2019-04-07T05:40:07.071Z,11.34
2019-04-07T05:42:35.789Z,11.32
2019-04-07T05:45:06.829Z,11.41
2019-04-07T05:47:36.464Z,11.54
2019-04-07T05:50:06.716Z,11.64
2019-04-07T05:52:39.053Z,11.61
2019-04-07T05:55:08.892Z,11.68
2019-04-07T05:57:37.795Z,11.90
2019-04-07T06:00:15.660Z,12.07
2019-04-07T06:02:42.986Z,12.10
2019-04-07T06:05:12.051Z,12.24
2019-04-07T06:07:41.569Z,12.15
2019-04-07T06:10:10.639Z,12.09
2019-04-07T06:12:41.981Z,12.07
2019-04-07T06:15:10.903Z,12.15
2019-04-07T06:17:40.021Z,12.34
2019-04-07T06:20:14.221Z,12.41
2019-04-07T06:22:40.463Z,12.68
2019-04-07T06:25:09.742Z,12.58
2019-04-07T06:27:39.313Z,12.81
2019-04-07T06:30:10.876Z,12.81
2019-04-07T06:32:40.727Z,12.97
2019-04-07T06:35:12.361Z,13.04
2019-04-07T06:37:40.717Z,13.06
2019-04-07T06:40:10.047Z,12.86
2019-04-07T06:42:38.836Z,12.96
2019-04-07T06:45:10.861Z,13.06
2019-04-07T06:47:47.564Z,13.33
2019-04-07T06:50:17.972Z,13.44
2019-04-07T06:52:48.793Z,13.53
2019-04-07T06:55:22.691Z,13.25
2019-04-07T06:58:11.171Z,13.60
2019-04-07T07:01:01.345Z,13.42
2019-04-07T07:03:39.114Z,13.74
2019-04-07T07:06:15.138Z,13.92
2019-04-07T07:08:46.395Z,14.31
2019-04-07T07:11:27.564Z,13.90
2019-04-07T07:13:56.597Z,14.42
2019-04-07T07:16:29.983Z,14.96
2019-04-07T07:19:04.162Z,15.08
2019-04-07T07:21:43.653Z,14.63
2019-04-07T07:24:15.214Z,15.15
2019-04-07T07:26:42.964Z,15.34
2019-04-07T07:29:17.164Z,15.83
2019-04-07T07:31:46.689Z,15.85
2019-04-07T07:34:15.570Z,15.88
2019-04-07T07:36:46.706Z,16.08
2019-04-07T07:39:15.657Z,16.12
2019-04-07T07:41:44.482Z,16.59
2019-04-07T07:44:13.404Z,16.61
2019-04-07T07:46:42.200Z,16.83
2019-04-07T07:49:11.566Z,17.42
2019-04-07T07:51:40.631Z,17.39
2019-04-07T07:54:11.466Z,17.59
2019-04-07T07:56:47.404Z,17.51
2019-04-07T07:59:12.307Z,17.45
2019-04-07T08:01:44.309Z,17.78
2019-04-07T08:04:11.468Z,17.58
2019-04-07T08:06:41.056Z,17.40
2019-04-07T08:09:14.926Z,17.32
2019-04-07T08:11:40.259Z,17.29
2019-04-07T08:14:08.998Z,17.72
2019-04-07T08:16:37.709Z,17.65
2019-04-07T08:19:09.257Z,17.42
2019-04-07T08:21:36.972Z,16.90
2019-04-07T08:24:05.686Z,17.13
2019-04-07T08:26:35.003Z,17.19
2019-04-07T08:29:06.763Z,17.19
2019-04-07T08:31:34.907Z,17.17
2019-04-07T08:34:03.790Z,17.48
2019-04-07T08:36:32.777Z,17.82
2019-04-07T08:39:01.479Z,17.66
2019-04-07T08:41:30.217Z,17.53
2019-04-07T08:43:59.858Z,17.82
2019-04-07T08:46:32.088Z,18.36
2019-04-07T08:49:03.860Z,19.10
2019-04-07T08:51:33.561Z,19.76
2019-04-07T08:54:04.498Z,20.47
2019-04-07T08:56:32.988Z,22.23
2019-04-07T08:59:01.921Z,22.01
2019-04-07T09:01:31.539Z,22.53
2019-04-07T09:04:01.278Z,23.24
2019-04-07T09:06:30.362Z,23.58
2019-04-07T09:08:59.039Z,22.99
2019-04-07T09:11:28.368Z,23.64
2019-04-07T09:13:57.121Z,22.96
2019-04-07T09:16:34.342Z,22.50
2019-04-07T09:19:13.741Z,21.94
2019-04-07T09:21:47.559Z,22.18
2019-04-07T09:24:18.006Z,22.84
2019-04-07T09:26:48.326Z,23.86
2019-04-07T09:29:26.127Z,24.79
2019-04-07T09:32:15.621Z,25.56
2019-04-07T09:34:48.175Z,25.16
2019-04-07T09:37:34.028Z,25.37
2019-04-07T09:40:16.490Z,25.73
2019-04-07T09:42:51.886Z,24.66
2019-04-07T09:45:22.841Z,24.09
2019-04-07T09:47:58.691Z,24.08
2019-04-07T09:50:45.950Z,23.51
2019-04-07T09:53:18.501Z,23.58
2019-04-07T09:55:49.046Z,23.71
2019-04-07T09:58:35.055Z,24.98
2019-04-07T10:01:09.218Z,26.38
2019-04-07T10:03:42.146Z,27.49
2019-04-07T10:06:12.434Z,28.49
2019-04-07T10:08:58.909Z,29.84
2019-04-07T10:11:29.575Z,30.40
2019-04-07T10:14:12.673Z,29.50
2019-04-07T10:16:49.593Z,24.93
2019-04-07T10:19:29.946Z,24.43
2019-04-07T10:22:09.541Z,24.44
2019-04-07T10:24:40.445Z,23.38
2019-04-07T10:27:28.727Z,23.06
2019-04-07T10:30:04.751Z,22.63
2019-04-07T10:32:35.956Z,21.25
2019-04-07T10:35:08.098Z,20.56
2019-04-07T10:37:44.545Z,20.12
2019-04-07T10:40:22.203Z,19.58
2019-04-07T10:42:59.693Z,19.32
2019-04-07T10:45:39.350Z,19.30
2019-04-07T10:48:13.441Z,19.31
2019-04-07T10:51:00.213Z,19.23
2019-04-07T10:53:32.217Z,18.95
2019-04-07T10:56:02.723Z,19.03
2019-04-07T10:58:39.253Z,18.87
2019-04-07T11:01:19.422Z,18.64
2019-04-07T11:03:53.976Z,18.46
2019-04-07T11:06:43.857Z,18.10
2019-04-07T11:09:23.553Z,17.76
2019-04-07T11:12:11.967Z,17.50
2019-04-07T11:14:43.003Z,17.37
2019-04-07T11:17:14.015Z,17.33
2019-04-07T11:19:53.322Z,17.20
2019-04-07T11:22:40.187Z,17.05
2019-04-07T11:25:10.980Z,16.98
2019-04-07T11:27:42.154Z,16.84
2019-04-07T11:30:18.707Z,16.60
2019-04-07T11:32:55.123Z,16.69
2019-04-07T11:35:37.413Z,16.81
2019-04-07T11:38:10.693Z,16.92
2019-04-07T11:40:57.817Z,17.14
2019-04-07T11:43:28.066Z,17.19
2019-04-07T11:46:03.293Z,17.31
2019-04-07T11:48:33.485Z,17.40
2019-04-07T11:51:07.274Z,17.54
2019-04-07T11:53:44.330Z,17.46
2019-04-07T11:56:17.721Z,17.34
2019-04-07T11:58:50.651Z,17.16
2019-04-07T12:01:21.000Z,17.27
2019-04-07T12:03:57.232Z,17.15
2019-04-07T12:06:30.398Z,17.23
2019-04-07T12:09:19.622Z,17.26
2019-04-07T12:11:50.461Z,17.76
2019-04-07T12:14:21.466Z,17.98
2019-04-07T12:17:09.409Z,17.89
2019-04-07T12:19:56.899Z,17.82
2019-04-07T12:22:30.676Z,18.06
2019-04-07T12:25:12.898Z,17.93
2019-04-07T12:27:52.058Z,17.65
2019-04-07T12:30:39.116Z,17.79
2019-04-07T12:33:09.908Z,17.49
2019-04-07T12:35:43.260Z,17.40
2019-04-07T12:38:22.981Z,17.25
2019-04-07T12:41:12.502Z,17.06
2019-04-07T12:43:30.905Z,17.03
2019-04-07T12:46:11.111Z,16.94
2019-04-07T12:48:57.610Z,16.91
2019-04-07T12:51:30.852Z,17.03
2019-04-07T12:54:07.140Z,17.28
2019-04-07T12:56:45.635Z,17.22
2019-04-07T12:59:19.266Z,17.53
2019-04-07T13:01:49.704Z,17.81
2019-04-07T13:04:36.472Z,18.10
2019-04-07T13:07:20.395Z,18.28
2019-04-07T13:09:51.721Z,18.26
2019-04-07T13:12:27.889Z,18.31
2019-04-07T13:15:04.052Z,18.15
2019-04-07T13:17:40.995Z,17.89
2019-04-07T13:20:18.105Z,17.74
2019-04-07T13:22:55.353Z,17.72
2019-04-07T13:25:29.969Z,17.76
2019-04-07T13:28:06.537Z,17.65
2019-04-07T13:30:54.671Z,17.53
2019-04-07T13:33:41.388Z,17.53
2019-04-07T13:36:12.483Z,17.25
2019-04-07T13:38:49.146Z,17.04
2019-04-07T13:41:42.949Z,17.05
2019-04-07T13:44:22.870Z,17.04
2019-04-07T13:46:59.231Z,16.97
2019-04-07T13:49:45.930Z,17.09
2019-04-07T13:52:34.439Z,17.08
2019-04-07T13:55:17.363Z,17.18
2019-04-07T13:57:48.347Z,17.15
2019-04-07T14:00:20.171Z,17.28
2019-04-07T14:02:53.395Z,17.20
2019-04-07T14:05:27.383Z,17.16
2019-04-07T14:07:58.979Z,17.10
2019-04-07T14:10:46.056Z,17.06
2019-04-07T14:13:22.395Z,16.98
2019-04-07T14:16:08.432Z,16.67
2019-04-07T14:18:38.891Z,16.64
2019-04-07T14:21:09.426Z,16.56
2019-04-07T14:23:42.446Z,16.60
2019-04-07T14:26:15.733Z,16.59
2019-04-07T14:28:46.261Z,16.63
2019-04-07T14:31:23.099Z,16.60
2019-04-07T14:33:53.530Z,16.62
2019-04-07T14:36:36.161Z,16.65
2019-04-07T14:39:09.618Z,16.61
2019-04-07T14:41:49.802Z,16.75
2019-04-07T14:44:23.613Z,16.86
2019-04-07T14:47:10.762Z,16.83
2019-04-07T14:49:57.212Z,16.75
2019-04-07T14:52:41.104Z,16.79
2019-04-07T14:55:18.396Z,16.82
2019-04-07T14:58:05.655Z,16.81
2019-04-07T15:00:45.257Z,16.80
2019-04-07T15:03:13.999Z,16.71
2019-04-07T15:05:47.282Z,16.56
2019-04-07T15:08:34.372Z,16.29
2019-04-07T15:11:19.839Z,16.22
2019-04-07T15:13:49.381Z,16.25
2019-04-07T15:16:18.566Z,16.13
2019-04-07T15:18:47.322Z,16.17
2019-04-07T15:21:16.048Z,16.05
2019-04-07T15:23:47.076Z,16.02
2019-04-07T15:26:16.697Z,15.91
2019-04-07T15:28:46.769Z,15.87
2019-04-07T15:31:17.576Z,15.76
2019-04-07T15:33:46.629Z,15.64
2019-04-07T15:36:18.770Z,15.53
2019-04-07T15:38:45.993Z,15.50
2019-04-07T15:41:17.612Z,15.56
2019-04-07T15:43:45.334Z,15.55
2019-04-07T15:46:17.356Z,15.35
2019-04-07T15:48:45.334Z,15.38
2019-04-07T15:51:14.460Z,15.23
2019-04-07T15:53:46.523Z,15.29
2019-04-07T15:56:16.927Z,15.18
2019-04-07T15:58:44.226Z,15.15
2019-04-07T16:01:12.908Z,15.02
2019-04-07T16:03:42.084Z,15.14
2019-04-07T16:06:13.675Z,15.10
2019-04-07T16:08:41.180Z,15.02
2019-04-07T16:11:10.457Z,14.93
2019-04-07T16:13:40.185Z,14.88
2019-04-07T16:16:09.072Z,14.78
2019-04-07T16:18:40.231Z,14.71
2019-04-07T16:21:09.480Z,14.61
2019-04-07T16:23:38.810Z,14.55
2019-04-07T16:26:07.751Z,14.52
2019-04-07T16:28:36.592Z,14.48
2019-04-07T16:31:06.536Z,14.48
2019-04-07T16:33:36.947Z,14.37
2019-04-07T16:36:06.462Z,14.31
2019-04-07T16:38:36.472Z,14.32
2019-04-07T16:41:06.464Z,14.29
2019-04-07T16:43:37.643Z,14.25
2019-04-07T16:46:06.422Z,14.12
2019-04-07T16:48:39.235Z,14.08
2019-04-07T16:51:06.065Z,13.91
2019-04-07T16:53:37.958Z,13.99
2019-04-07T16:56:05.359Z,13.99
2019-04-07T16:58:37.254Z,13.97
2019-04-07T17:01:04.664Z,13.89
2019-04-07T17:03:34.425Z,13.84
2019-04-07T17:06:03.133Z,13.81
2019-04-07T17:08:31.902Z,13.77
2019-04-07T17:11:04.390Z,13.70
2019-04-07T17:13:39.401Z,13.69
2019-04-07T17:16:01.543Z,13.67
2019-04-07T17:18:41.804Z,13.63
2019-04-07T17:21:15.921Z,13.60
2019-04-07T17:23:45.618Z,13.63
2019-04-07T17:26:14.656Z,13.61
2019-04-07T17:28:46.028Z,13.53
2019-04-07T17:31:14.350Z,13.52
2019-04-07T17:33:43.140Z,13.49
2019-04-07T17:36:15.435Z,13.47
2019-04-07T17:39:05.518Z,13.45
2019-04-07T17:41:33.611Z,13.43
2019-04-07T17:44:13.124Z,13.39
2019-04-07T17:46:53.317Z,13.34
2019-04-07T17:49:39.142Z,13.34
2019-04-07T17:52:26.147Z,13.33
2019-04-07T17:55:11.613Z,13.30
2019-04-07T17:57:57.586Z,13.27
2019-04-07T18:00:34.219Z,13.22
2019-04-07T18:03:07.572Z,13.17
2019-04-07T18:05:49.761Z,13.14
2019-04-07T18:08:23.458Z,13.13
2019-04-07T18:10:59.544Z,13.09
2019-04-07T18:13:50.002Z,13.09
2019-04-07T18:16:34.176Z,13.08
2019-04-07T18:19:20.800Z,13.08
2019-04-07T18:22:00.085Z,13.07
2019-04-07T18:24:30.860Z,13.04
2019-04-07T18:27:03.267Z,13.05
2019-04-07T18:29:34.234Z,13.02
2019-04-07T18:32:21.070Z,13.00
2019-04-07T18:35:02.531Z,12.96
2019-04-07T18:37:48.411Z,12.95
2019-04-07T18:40:31.764Z,12.92
2019-04-07T18:43:19.904Z,12.93
2019-04-07T18:45:52.667Z,12.92
2019-04-07T18:48:28.860Z,12.93
2019-04-07T18:50:59.330Z,12.93
2019-04-07T18:53:30.675Z,12.98
2019-04-07T18:56:01.479Z,12.92
2019-04-07T18:58:50.046Z,12.94
2019-04-07T19:01:27.432Z,12.93
2019-04-07T19:03:58.146Z,12.87
2019-04-07T19:06:48.267Z,12.93
2019-04-07T19:09:20.461Z,12.86
2019-04-07T19:12:13.480Z,12.88
2019-04-07T19:14:44.620Z,12.78
2019-04-07T19:17:10.689Z,12.75
2019-04-07T19:19:41.998Z,12.84
2019-04-07T19:22:28.668Z,12.79
2019-04-07T19:25:11.189Z,12.84
2019-04-07T19:27:45.893Z,12.75
2019-04-07T19:30:19.435Z,12.72
2019-04-07T19:32:52.575Z,12.71
2019-04-07T19:35:25.110Z,12.69
2019-04-07T19:38:07.342Z,12.72
2019-04-07T19:40:40.643Z,12.68
2019-04-07T19:43:17.014Z,12.63
2019-04-07T19:45:47.296Z,12.61
2019-04-07T19:48:23.353Z,12.64
2019-04-07T19:50:55.014Z,12.63
2019-04-07T19:53:32.782Z,12.54
2019-04-07T19:56:06.680Z,12.47
2019-04-07T19:58:48.966Z,12.45
2019-04-07T20:01:29.217Z,12.43
2019-04-07T20:03:59.911Z,12.36
2019-04-07T20:06:42.149Z,12.35
2019-04-07T20:09:15.977Z,12.39
2019-04-07T20:11:46.405Z,12.36
2019-04-07T20:14:31.750Z,12.35
2019-04-07T20:17:02.059Z,12.32
2019-04-07T20:19:48.332Z,12.30
2019-04-07T20:22:22.708Z,12.32
2019-04-07T20:25:11.598Z,12.26
2019-04-07T20:27:42.812Z,12.13
2019-04-07T20:30:17.501Z,12.26
2019-04-07T20:33:00.712Z,12.29
2019-04-07T20:35:31.509Z,12.26
2019-04-07T20:38:04.765Z,12.26
2019-04-07T20:40:50.249Z,12.21
2019-04-07T20:43:33.024Z,12.20
2019-04-07T20:46:06.722Z,12.15
2019-04-07T20:48:45.864Z,12.15
2019-04-07T20:51:22.151Z,12.06
2019-04-07T20:54:01.368Z,12.01
2019-04-07T20:56:47.104Z,12.07
2019-04-07T20:59:33.375Z,12.05
2019-04-07T21:02:22.883Z,12.06
2019-04-07T21:04:55.255Z,12.10
2019-04-07T21:07:43.740Z,12.01
2019-04-07T21:10:26.325Z,11.96
2019-04-07T21:12:56.944Z,12.01
2019-04-07T21:15:45.361Z,11.97
2019-04-07T21:18:15.818Z,11.98
2019-04-07T21:20:49.133Z,11.97
2019-04-07T21:23:22.078Z,11.94
2019-04-07T21:26:07.949Z,11.88
2019-04-07T21:28:50.530Z,11.79
2019-04-07T21:31:21.451Z,11.79
2019-04-07T21:33:53.285Z,11.72
2019-04-07T21:36:39.302Z,11.76
2019-04-07T21:39:29.459Z,11.80
2019-04-07T21:41:56.885Z,11.84
2019-04-07T21:44:29.130Z,11.75
2019-04-07T21:47:14.224Z,11.74
2019-04-07T21:49:51.289Z,11.65
2019-04-07T21:52:24.207Z,11.70
2019-04-07T21:55:09.792Z,11.62
2019-04-07T21:57:37.725Z,11.61
2019-04-07T22:00:10.491Z,11.57
2019-04-07T22:02:45.672Z,11.58
2019-04-07T22:05:18.552Z,11.62
2019-04-07T22:07:55.586Z,11.61
2019-04-07T22:10:24.635Z,11.66
2019-04-07T22:12:53.310Z,11.67
2019-04-07T22:15:22.602Z,11.70
2019-04-07T22:17:52.055Z,11.73
2019-04-07T22:20:21.634Z,11.72
2019-04-07T22:22:51.303Z,11.70
2019-04-07T22:25:25.881Z,11.72
2019-04-07T22:27:56.435Z,11.73
2019-04-07T22:30:25.003Z,11.71
2019-04-07T22:32:54.148Z,11.75
2019-04-07T22:35:23.164Z,11.72
2019-04-07T22:37:52.672Z,11.71
2019-04-07T22:40:21.745Z,11.72
2019-04-07T22:42:50.432Z,11.66
2019-04-07T22:45:19.188Z,11.70
2019-04-07T22:47:51.504Z,11.68
2019-04-07T22:50:18.369Z,11.71
2019-04-07T22:52:49.196Z,11.64
2019-04-07T22:55:17.668Z,11.50
2019-04-07T22:57:46.450Z,11.65
2019-04-07T23:00:17.186Z,11.63
2019-04-07T23:02:46.594Z,11.67
2019-04-07T23:05:15.310Z,11.65
2019-04-07T23:07:44.025Z,11.61
2019-04-07T23:10:13.309Z,11.62
2019-04-07T23:12:42.368Z,11.63
2019-04-07T23:15:11.217Z,11.57
2019-04-07T23:17:39.933Z,11.53
2019-04-07T23:20:09.429Z,11.59
2019-04-07T23:22:38.314Z,11.48
2019-04-07T23:25:07.946Z,11.36
2019-04-07T23:27:36.613Z,11.38
2019-04-07T23:30:08.857Z,11.43
2019-04-07T23:32:38.429Z,11.42
2019-04-07T23:35:08.301Z,11.49
2019-04-07T23:37:39.037Z,11.47
2019-04-07T23:40:08.606Z,11.42
2019-04-07T23:42:38.257Z,11.46
2019-04-07T23:45:08.240Z,11.43
2019-04-07T23:47:36.986Z,11.45
2019-04-07T23:50:07.836Z,11.47
2019-04-07T23:52:36.517Z,11.46
2019-04-07T23:55:05.295Z,11.40
2019-04-07T23:57:34.051Z,11.36
